weather.gov     
National Weather Service

Terminal Aerodrome Forecast
NWS Homepage
This page is being discontinued on March 12, 2014.
The same data is available at this site. Please update your bookmarks.
Thank you, and we apologize for the inconvenience.
Please send an email to SR-SRH.Webmaster@noaa.gov with any concerns.


Current Version
Previous Version:    01  02  03  04  05  06  07  08  09  10  11  12  13  14  15  16  17  18  19  20  21  22  23  24  25  26  27  
[Printable]
138
FTUS43 KMPX 231100
TAFRWF
TAF
KRWF 231129Z 2312/2412 13012G20KT P6SM VCSH OVC060
     FM231400 14020G30KT P6SM -SHRA SCT030 OVC060
     FM231900 14024G36KT P6SM VCSH SCT040 BKN070
     FM240000 13020G30KT 4SM -RA BR SCT020 OVC040
      TEMPO 2401/2405 2SM -RA BR BKN020
     FM240500 12010KT 3SM -RA BR SCT007 OVC015=


U.S. Dept. of Commerce
NOAA National Weather Service
1325 East West Highway
Silver Spring, MD 20910
E-mail: w-nws.webmaster@noaa.gov
Page last modified: May 16, 2007
NATIONAL WEATHER SERVICE: for Safety, for Work, for Fun - FOR LIFE